Time;durP1;ratioP1;P1;durP2;ratioP2;P2;SDS_P1;SDS_P2;PMS_P1;PMS_P2;Temp;Humidity;BMP_temperature;BMP_pressure;BME280_temperature;BME280_humidity;BME280_pressure;Samples;Min_cycle;Max_cycle;Signal;HPM_P1;HPM_P2
2024/03/24 00:01:49;;;;;;;13.77;2.80;;;6.70;99.90;;;;;;7290608;19;20198;-85
2024/03/24 00:04:15;;;;;;;9.67;2.83;;;6.70;99.90;;;;;;7288531;19;20193;-85
2024/03/24 00:06:41;;;;;;;11.43;3.07;;;6.80;99.90;;;;;;7286690;19;20193;-85
2024/03/24 00:09:09;;;;;;;10.47;2.80;;;6.90;99.90;;;;;;7288674;19;20203;-83
2024/03/24 00:11:35;;;;;;;10.50;3.03;;;7.00;99.90;;;;;;7311656;19;20189;-85
2024/03/24 00:14:00;;;;;;;11.40;2.73;;;7.00;99.90;;;;;;7290857;19;20196;-85
2024/03/24 00:16:28;;;;;;;7.83;2.80;;;7.10;99.90;;;;;;7286601;19;20188;-85
2024/03/24 00:18:54;;;;;;;13.83;2.90;;;7.10;99.90;;;;;;7288862;19;20193;-85
2024/03/24 00:21:20;;;;;;;10.23;2.80;;;7.20;99.90;;;;;;7287947;19;20256;-85
2024/03/24 00:23:48;;;;;;;9.67;2.50;;;7.20;99.90;;;;;;7288858;19;20257;-84
2024/03/24 00:26:14;;;;;;;13.20;2.80;;;7.20;99.90;;;;;;7287377;19;20192;-85
2024/03/24 00:28:40;;;;;;;11.40;2.67;;;7.20;99.90;;;;;;7290552;19;20190;-85
2024/03/24 00:31:06;;;;;;;9.73;2.40;;;7.20;99.90;;;;;;7300710;19;20208;-85
2024/03/24 00:33:31;;;;;;;8.43;2.40;;;7.30;99.90;;;;;;7306726;19;20224;-85
2024/03/24 00:35:57;;;;;;;10.70;2.30;;;7.30;99.90;;;;;;7288421;19;20302;-86
2024/03/24 00:38:23;;;;;;;11.53;2.33;;;7.40;99.90;;;;;;7288675;19;20310;-86
2024/03/24 00:40:49;;;;;;;13.90;2.10;;;7.50;99.90;;;;;;7290732;19;20186;-86
2024/03/24 00:43:15;;;;;;;11.50;2.43;;;7.50;99.90;;;;;;7287859;19;20189;-85
2024/03/24 00:45:41;;;;;;;7.53;2.43;;;7.40;99.90;;;;;;7285430;19;20188;-85
2024/03/24 00:48:07;;;;;;;13.50;2.77;;;7.40;99.90;;;;;;7295052;19;20705;-85
2024/03/24 00:50:32;;;;;;;9.43;2.23;;;7.50;99.90;;;;;;7308928;19;20297;-87
2024/03/24 00:52:58;;;;;;;7.90;2.30;;;7.60;99.90;;;;;;7283930;19;20205;-86
2024/03/24 00:55:26;;;;;;;8.20;2.17;;;7.60;99.90;;;;;;7288648;19;22265;-87
2024/03/24 00:57:52;;;;;;;10.83;2.33;;;7.60;99.90;;;;;;7286420;19;20687;-86
2024/03/24 01:00:18;;;;;;;7.67;2.33;;;7.50;99.90;;;;;;7288960;19;20202;-86
2024/03/24 01:02:48;;;;;;;9.10;2.23;;;7.50;99.90;;;;;;7286724;19;20198;-87
2024/03/24 01:05:14;;;;;;;11.27;2.60;;;7.60;99.90;;;;;;7348415;19;20245;-86
2024/03/24 01:07:40;;;;;;;9.00;2.87;;;7.60;99.90;;;;;;7400547;19;20152;-86
2024/03/24 01:10:07;;;;;;;11.63;2.60;;;7.50;99.90;;;;;;7349674;19;20222;-83
2024/03/24 01:12:32;;;;;;;7.57;2.30;;;7.70;99.90;;;;;;7308275;19;20192;-86
2024/03/24 01:14:58;;;;;;;12.13;2.27;;;7.60;99.90;;;;;;7286073;19;20185;-86
2024/03/24 01:17:24;;;;;;;11.10;2.60;;;7.60;99.90;;;;;;7283564;19;20236;-86
2024/03/24 01:19:50;;;;;;;13.70;2.53;;;7.60;99.90;;;;;;7284614;19;20192;-87
2024/03/24 01:22:15;;;;;;;12.47;2.53;;;7.50;99.90;;;;;;7285297;19;20198;-87
2024/03/24 01:24:41;;;;;;;10.20;2.47;;;7.60;99.90;;;;;;7285946;19;20186;-88
2024/03/24 01:27:07;;;;;;;9.37;2.77;;;7.60;99.90;;;;;;7284092;19;20259;-85
2024/03/24 01:29:33;;;;;;;10.33;2.33;;;7.70;99.90;;;;;;7306447;19;20186;-86
2024/03/24 01:31:59;;;;;;;11.30;2.50;;;7.70;99.90;;;;;;7282449;19;20716;-86
2024/03/24 01:34:25;;;;;;;10.23;2.40;;;7.80;99.90;;;;;;7285777;19;20193;-86
2024/03/24 01:36:51;;;;;;;8.03;2.50;;;7.80;99.90;;;;;;7284832;19;20204;-86
2024/03/24 01:39:17;;;;;;;11.27;2.50;;;7.90;99.90;;;;;;7284687;19;20192;-86
2024/03/24 01:41:44;;;;;;;9.90;2.23;;;7.70;99.90;;;;;;7285424;19;20198;-86
2024/03/24 01:44:09;;;;;;;11.13;2.50;;;7.70;99.90;;;;;;7285104;19;20706;-86
2024/03/24 01:46:35;;;;;;;9.70;2.00;;;7.70;99.90;;;;;;7307922;19;20193;-86
2024/03/24 01:49:01;;;;;;;8.83;2.07;;;7.70;99.90;;;;;;7284515;19;20204;-86
2024/03/24 01:51:28;;;;;;;10.43;2.23;;;7.70;99.90;;;;;;7286157;19;20180;-86
2024/03/24 01:53:54;;;;;;;7.33;2.27;;;7.70;99.90;;;;;;7285809;19;20653;-86
2024/03/24 01:56:20;;;;;;;11.00;2.53;;;7.70;99.90;;;;;;7286843;19;20220;-86
2024/03/24 01:58:47;;;;;;;7.00;1.90;;;7.80;99.90;;;;;;7285881;19;20194;-87
2024/03/24 02:01:13;;;;;;;13.77;2.40;;;7.80;99.90;;;;;;7286779;19;20186;-86
2024/03/24 02:03:39;;;;;;;9.93;2.00;;;7.80;99.90;;;;;;7272840;19;20189;-86
2024/03/24 02:06:05;;;;;;;10.67;2.47;;;7.80;99.90;;;;;;7309427;19;20191;-87
2024/03/24 02:08:32;;;;;;;13.13;2.40;;;7.70;99.90;;;;;;7287738;19;20520;-86
2024/03/24 02:10:58;;;;;;;9.23;1.93;;;7.80;99.90;;;;;;7286270;19;20196;-87
2024/03/24 02:13:25;;;;;;;11.73;2.37;;;7.80;99.90;;;;;;7285892;19;20182;-87
2024/03/24 02:15:52;;;;;;;11.30;2.00;;;7.80;99.90;;;;;;7284323;19;20196;-86
2024/03/24 02:18:18;;;;;;;10.90;2.50;;;7.90;99.90;;;;;;7283293;19;20193;-86
2024/03/24 02:20:44;;;;;;;15.40;2.73;;;7.80;99.90;;;;;;7284699;19;20690;-86
2024/03/24 02:23:09;;;;;;;9.10;2.20;;;7.80;99.90;;;;;;7301803;19;20182;-84
2024/03/24 02:25:35;;;;;;;11.97;2.50;;;7.80;99.90;;;;;;7323806;19;20185;-87
2024/03/24 02:28:01;;;;;;;10.77;2.50;;;7.70;99.90;;;;;;7298499;19;20202;-87
2024/03/24 02:30:27;;;;;;;10.93;2.67;;;7.60;99.90;;;;;;7296917;19;20193;-86
2024/03/24 02:32:53;;;;;;;12.83;2.53;;;7.60;99.90;;;;;;7294845;19;20189;-86
2024/03/24 02:35:20;;;;;;;13.03;2.13;;;7.60;99.90;;;;;;7292452;19;20296;-86
2024/03/24 02:37:46;;;;;;;13.43;2.10;;;7.60;99.90;;;;;;7293476;19;20193;-86
2024/03/24 02:40:13;;;;;;;10.77;2.20;;;7.50;99.90;;;;;;7294570;19;20193;-86
2024/03/24 02:42:39;;;;;;;16.30;2.20;;;7.60;99.90;;;;;;7286656;19;20759;-87
2024/03/24 02:45:06;;;;;;;15.20;2.40;;;7.70;99.90;;;;;;7306204;19;20191;-87
2024/03/24 02:47:32;;;;;;;11.90;2.47;;;7.90;99.90;;;;;;7285087;19;20181;-87
2024/03/24 02:49:59;;;;;;;14.23;2.67;;;7.80;99.90;;;;;;7285246;19;20203;-86
2024/03/24 02:52:24;;;;;;;12.53;2.30;;;7.80;99.90;;;;;;7284007;19;20194;-87
2024/03/24 02:54:50;;;;;;;13.60;2.60;;;7.80;99.90;;;;;;7284025;19;20192;-86
2024/03/24 02:57:16;;;;;;;12.77;2.33;;;7.70;99.90;;;;;;7284152;19;20246;-87
2024/03/24 02:59:42;;;;;;;14.97;2.67;;;7.70;99.90;;;;;;7285618;19;20210;-87
2024/03/24 03:02:07;;;;;;;13.93;3.00;;;7.70;99.90;;;;;;7283915;19;20190;-86
2024/03/24 03:04:33;;;;;;;9.77;2.30;;;7.80;99.90;;;;;;7304320;19;20704;-87
2024/03/24 03:06:59;;;;;;;13.00;2.60;;;7.80;99.90;;;;;;7284280;19;20187;-86
2024/03/24 03:09:26;;;;;;;13.40;2.67;;;7.80;99.90;;;;;;7284406;19;20210;-87
2024/03/24 03:11:53;;;;;;;11.50;2.53;;;7.80;99.90;;;;;;7282115;19;20191;-86
2024/03/24 03:14:19;;;;;;;15.10;2.80;;;7.70;99.90;;;;;;7279866;19;20197;-86
2024/03/24 03:16:45;;;;;;;14.23;2.90;;;7.80;99.90;;;;;;7283690;19;20225;-86
2024/03/24 03:19:11;;;;;;;13.20;2.60;;;7.70;99.90;;;;;;7286828;19;20540;-87
2024/03/24 03:21:37;;;;;;;11.10;2.40;;;7.70;99.90;;;;;;7290299;19;20190;-86
2024/03/24 03:24:03;;;;;;;12.50;2.30;;;7.80;99.90;;;;;;7302078;19;20189;-87
2024/03/24 03:26:29;;;;;;;16.47;2.57;;;7.90;99.90;;;;;;7282666;19;20647;-86
2024/03/24 03:28:55;;;;;;;11.83;2.30;;;7.90;99.90;;;;;;7280885;19;20190;-86
2024/03/24 03:31:21;;;;;;;16.63;3.37;;;7.90;99.90;;;;;;7279846;19;20214;-86
2024/03/24 03:33:47;;;;;;;11.20;2.33;;;8.00;99.90;;;;;;7284530;19;20190;-87
2024/03/24 03:36:13;;;;;;;12.87;2.83;;;8.00;99.90;;;;;;7288086;19;20200;-86
2024/03/24 03:38:38;;;;;;;12.00;2.97;;;7.90;99.90;;;;;;7283996;19;20617;-85
2024/03/24 03:41:05;;;;;;;10.90;2.43;;;7.90;99.90;;;;;;7304086;19;20206;-87
2024/03/24 03:43:32;;;;;;;13.63;2.63;;;8.00;99.90;;;;;;7281698;19;20189;-87
2024/03/24 03:45:58;;;;;;;17.73;2.57;;;8.10;99.90;;;;;;7281886;19;20191;-87
2024/03/24 03:48:24;;;;;;;16.10;2.97;;;8.00;99.90;;;;;;7283079;19;20193;-87
2024/03/24 03:50:50;;;;;;;11.00;2.30;;;7.90;99.90;;;;;;7282170;19;21043;-87
2024/03/24 03:53:24;;;;;;;12.33;2.43;;;8.00;99.90;;;;;;7284125;19;20200;-87
2024/03/24 03:55:51;;;;;;;13.17;2.43;;;8.10;99.90;;;;;;7284053;19;20186;-87
2024/03/24 03:58:20;;;;;;;13.90;2.43;;;8.10;99.90;;;;;;7280931;19;20189;-87
2024/03/24 04:00:48;;;;;;;12.27;2.50;;;8.10;99.90;;;;;;7282665;19;20210;-87
2024/03/24 04:03:14;;;;;;;15.07;2.20;;;8.20;99.90;;;;;;7282885;19;20272;-87
2024/03/24 04:05:40;;;;;;;11.20;2.57;;;8.20;99.90;;;;;;7283378;19;20211;-86
2024/03/24 04:08:07;;;;;;;13.27;2.23;;;8.20;99.90;;;;;;7298639;19;20277;-84
2024/03/24 04:10:34;;;;;;;14.30;2.77;;;8.20;99.90;;;;;;7303086;19;20208;-87
2024/03/24 04:13:01;;;;;;;12.50;2.37;;;8.20;99.90;;;;;;7282688;19;20509;-86
2024/03/24 04:15:27;;;;;;;14.47;2.57;;;8.20;99.90;;;;;;7281845;19;20187;-86
2024/03/24 04:17:53;;;;;;;11.47;2.60;;;8.20;99.90;;;;;;7280024;19;20197;-87
2024/03/24 04:20:18;;;;;;;11.93;2.43;;;8.10;99.90;;;;;;7281586;19;20257;-87
2024/03/24 04:22:47;;;;;;;18.40;2.83;;;8.10;99.90;;;;;;7282089;19;20620;-86
2024/03/24 04:25:13;;;;;;;16.83;3.10;;;8.00;99.90;;;;;;7281782;19;20265;-86
2024/03/24 04:27:39;;;;;;;18.03;2.87;;;8.00;99.90;;;;;;7287206;19;20188;-85
2024/03/24 04:30:07;;;;;;;15.13;2.73;;;8.00;99.90;;;;;;7310731;19;20657;-86
2024/03/24 04:32:33;;;;;;;16.07;2.90;;;8.10;99.90;;;;;;7290031;19;20189;-87
2024/03/24 04:34:59;;;;;;;13.30;3.07;;;8.10;99.90;;;;;;7290681;19;20197;-87
2024/03/24 04:37:25;;;;;;;15.40;2.90;;;8.10;99.90;;;;;;7285020;19;20186;-86
2024/03/24 04:39:51;;;;;;;17.70;3.00;;;8.20;99.90;;;;;;7287655;19;20194;-87
2024/03/24 04:42:16;;;;;;;12.93;2.73;;;8.10;99.90;;;;;;7289546;19;20215;-86
2024/03/24 04:44:42;;;;;;;13.43;2.50;;;8.10;99.90;;;;;;7291013;19;20182;-86
2024/03/24 04:47:08;;;;;;;14.70;2.80;;;8.10;99.90;;;;;;7286909;19;20727;-83
2024/03/24 04:49:35;;;;;;;16.00;3.10;;;8.10;99.90;;;;;;7310545;19;20261;-86
2024/03/24 04:52:01;;;;;;;12.70;3.27;;;8.20;99.90;;;;;;7289839;19;20191;-86
2024/03/24 04:54:26;;;;;;;15.00;3.00;;;8.10;99.90;;;;;;7286962;19;20206;-87
2024/03/24 04:56:53;;;;;;;19.13;2.67;;;8.10;99.90;;;;;;7293127;19;20207;-86
2024/03/24 04:59:20;;;;;;;16.73;3.23;;;8.10;99.90;;;;;;7293698;19;20530;-87
2024/03/24 05:01:46;;;;;;;16.67;3.27;;;8.10;99.90;;;;;;7292684;19;20195;-86
2024/03/24 05:04:12;;;;;;;21.93;3.47;;;8.10;99.90;;;;;;7293805;19;20182;-86
2024/03/24 05:06:37;;;;;;;14.47;3.03;;;8.20;99.90;;;;;;7296782;19;20221;-86
2024/03/24 05:09:04;;;;;;;14.27;3.10;;;8.20;99.90;;;;;;7309241;19;20186;-86
2024/03/24 05:11:32;;;;;;;17.33;3.30;;;8.30;99.90;;;;;;7287343;19;20202;-86
2024/03/24 05:13:58;;;;;;;17.67;2.97;;;8.30;99.90;;;;;;7285949;19;20198;-86
2024/03/24 05:16:26;;;;;;;16.70;3.00;;;8.30;99.90;;;;;;7287683;19;20558;-86
2024/03/24 05:18:52;;;;;;;16.53;2.70;;;8.20;99.90;;;;;;7286694;19;20228;-87
2024/03/24 05:21:18;;;;;;;18.43;3.00;;;8.20;99.90;;;;;;7287766;19;20194;-86
2024/03/24 05:23:44;;;;;;;16.17;3.17;;;8.20;99.90;;;;;;7286507;19;20194;-86
2024/03/24 05:26:09;;;;;;;19.80;2.90;;;8.30;99.90;;;;;;7286238;19;20315;-86
2024/03/24 05:28:35;;;;;;;16.37;2.90;;;8.30;99.90;;;;;;7310774;19;20198;-86
2024/03/24 05:31:01;;;;;;;18.07;3.83;;;8.40;99.90;;;;;;7286443;19;20730;-86
2024/03/24 05:33:27;;;;;;;19.50;3.43;;;8.40;99.90;;;;;;7285249;19;20198;-86
2024/03/24 05:36:03;;;;;;;14.90;2.83;;;8.50;99.90;;;;;;7287566;19;20217;-86
2024/03/24 05:38:31;;;;;;;15.80;2.80;;;8.40;99.90;;;;;;7286615;19;20564;-86
2024/03/24 05:41:02;;;;;;;16.83;3.13;;;8.40;99.90;;;;;;7285317;19;20182;-86
2024/03/24 05:43:28;;;;;;;13.97;2.87;;;8.30;99.90;;;;;;7286803;19;20225;-86
2024/03/24 05:45:54;;;;;;;15.83;2.80;;;8.40;99.90;;;;;;7283838;19;20722;-87
2024/03/24 05:48:21;;;;;;;15.53;3.03;;;8.40;99.90;;;;;;7287026;19;20194;-86
2024/03/24 05:50:59;;;;;;;15.87;3.07;;;8.30;99.90;;;;;;7283607;19;20200;-87
2024/03/24 05:53:25;;;;;;;14.77;2.90;;;8.40;99.90;;;;;;7284685;19;20198;-85
2024/03/24 05:55:50;;;;;;;21.90;3.07;;;8.40;99.90;;;;;;7285084;19;20189;-86
2024/03/24 05:58:20;;;;;;;13.43;2.70;;;8.50;99.90;;;;;;7286737;19;20199;-84
2024/03/24 06:00:48;;;;;;;14.87;3.20;;;8.40;99.90;;;;;;7283065;19;20230;-83
2024/03/24 06:03:16;;;;;;;21.87;3.90;;;8.50;99.90;;;;;;7284920;19;20190;-86
2024/03/24 06:05:42;;;;;;;16.40;3.30;;;8.30;99.90;;;;;;7285449;19;20693;-85
2024/03/24 06:08:09;;;;;;;20.13;3.30;;;8.30;99.90;;;;;;7284832;19;20205;-84
2024/03/24 06:10:41;;;;;;;13.97;3.57;;;8.30;99.90;;;;;;7304896;19;20208;-84
2024/03/24 06:13:08;;;;;;;18.53;3.60;;;8.20;99.90;;;;;;7272278;19;20252;-83
2024/03/24 06:15:34;;;;;;;14.97;3.30;;;8.20;99.90;;;;;;7307991;19;20194;-82
2024/03/24 06:18:04;;;;;;;16.73;3.07;;;8.10;99.90;;;;;;7284205;19;20193;-84
2024/03/24 06:20:33;;;;;;;13.40;2.90;;;8.20;99.90;;;;;;7278704;19;20203;-85
2024/03/24 06:23:03;;;;;;;13.27;2.93;;;8.20;99.90;;;;;;7283999;19;20189;-84
2024/03/24 06:25:29;;;;;;;16.17;3.27;;;8.40;99.90;;;;;;7284479;19;20206;-83
2024/03/24 06:27:56;;;;;;;14.83;3.37;;;8.40;99.90;;;;;;7280388;19;20726;-83
2024/03/24 06:30:23;;;;;;;13.23;2.97;;;8.40;99.90;;;;;;7284017;19;20191;-83
2024/03/24 06:32:49;;;;;;;16.70;2.90;;;8.40;99.90;;;;;;7284179;19;20198;-84
2024/03/24 06:35:15;;;;;;;14.80;3.03;;;8.40;99.90;;;;;;7283914;19;20187;-84
2024/03/24 06:37:47;;;;;;;16.43;2.70;;;8.50;99.90;;;;;;7284808;19;20200;-86
2024/03/24 06:40:13;;;;;;;15.70;3.30;;;8.50;99.90;;;;;;7283745;19;20257;-85
2024/03/24 06:42:44;;;;;;;16.10;3.30;;;8.50;99.90;;;;;;7284403;19;20307;-83
2024/03/24 06:45:11;;;;;;;17.40;3.40;;;8.60;99.90;;;;;;7283319;19;20191;-83
2024/03/24 06:47:37;;;;;;;13.67;3.13;;;8.60;99.90;;;;;;7302222;19;20625;-79
2024/03/24 06:50:04;;;;;;;13.53;3.20;;;8.60;99.90;;;;;;7296872;19;20195;-84
2024/03/24 06:52:30;;;;;;;14.23;3.00;;;8.60;99.90;;;;;;7284442;19;20190;-83
2024/03/24 06:54:56;;;;;;;15.83;3.17;;;8.70;99.90;;;;;;7284199;19;20187;-84
2024/03/24 06:57:22;;;;;;;15.73;3.50;;;8.50;99.90;;;;;;7282692;19;20560;-84
2024/03/24 06:59:48;;;;;;;13.33;3.13;;;8.50;99.90;;;;;;7282740;19;20205;-84
2024/03/24 07:02:14;;;;;;;15.80;3.00;;;8.50;99.90;;;;;;7284209;19;20276;-83
2024/03/24 07:04:39;;;;;;;12.70;3.40;;;9.00;99.90;;;;;;7283415;19;20203;-80
2024/03/24 07:07:05;;;;;;;14.90;3.50;;;9.90;99.90;;;;;;7304684;19;20179;-80
2024/03/24 07:09:31;;;;;;;14.97;3.23;;;10.30;99.90;;;;;;7279660;19;20251;-84
2024/03/24 07:11:57;;;;;;;18.70;3.37;;;10.20;99.90;;;;;;7283960;19;20224;-84
2024/03/24 07:14:22;;;;;;;16.70;3.53;;;10.00;99.90;;;;;;7282178;19;20195;-81
2024/03/24 07:16:48;;;;;;;18.47;3.77;;;10.00;99.90;;;;;;7281717;19;20184;-85
2024/03/24 07:19:15;;;;;;;14.20;3.37;;;9.60;99.90;;;;;;7282596;19;20198;-83
2024/03/24 07:21:41;;;;;;;17.67;3.23;;;9.50;99.90;;;;;;7283737;19;20213;-84
2024/03/24 07:24:08;;;;;;;16.87;3.37;;;9.70;99.90;;;;;;7295564;19;20187;-79
2024/03/24 07:26:34;;;;;;;16.53;3.60;;;10.80;99.90;;;;;;7304127;19;20184;-85
2024/03/24 07:29:00;;;;;;;14.10;3.00;;;10.90;99.90;;;;;;7284251;19;20193;-84
2024/03/24 07:31:26;;;;;;;13.70;3.33;;;10.60;99.90;;;;;;7280132;19;20193;-85
2024/03/24 07:33:51;;;;;;;12.70;3.10;;;10.00;99.90;;;;;;7280710;19;20193;-86
2024/03/24 07:36:17;;;;;;;14.23;3.20;;;9.70;99.90;;;;;;7283390;19;20197;-83
2024/03/24 07:38:43;;;;;;;16.63;3.70;;;9.80;99.90;;;;;;7282748;19;20191;-84
2024/03/24 07:41:08;;;;;;;16.03;3.47;;;9.60;99.90;;;;;;7281607;19;20904;-82
2024/03/24 07:43:34;;;;;;;16.17;3.23;;;9.60;99.90;;;;;;7304476;19;20262;-83
2024/03/24 07:46:00;;;;;;;13.70;3.40;;;9.50;99.90;;;;;;7282595;19;20204;-83
2024/03/24 07:48:26;;;;;;;15.80;3.23;;;9.60;99.90;;;;;;7281732;19;20187;-84
2024/03/24 07:50:52;;;;;;;13.40;3.07;;;9.70;99.90;;;;;;7283258;19;20191;-83
2024/03/24 07:53:18;;;;;;;14.03;3.03;;;9.70;99.90;;;;;;7279969;19;20260;-84
2024/03/24 07:55:43;;;;;;;18.37;3.13;;;9.60;99.90;;;;;;7282419;19;20181;-84
2024/03/24 07:58:09;;;;;;;14.27;3.27;;;9.30;99.90;;;;;;7283060;19;20194;-83
2024/03/24 08:00:35;;;;;;;14.37;3.37;;;9.10;99.90;;;;;;7308940;19;20186;-84
2024/03/24 08:03:02;;;;;;;15.13;3.50;;;9.10;99.90;;;;;;7288845;19;20671;-84
2024/03/24 08:05:28;;;;;;;13.33;3.17;;;9.30;99.90;;;;;;7290071;19;20191;-84
2024/03/24 08:07:53;;;;;;;14.10;3.30;;;9.40;99.90;;;;;;7288964;19;20188;-84
2024/03/24 08:10:21;;;;;;;16.63;3.40;;;9.40;99.90;;;;;;7289255;19;20195;-84
2024/03/24 08:12:47;;;;;;;15.87;4.87;;;9.60;99.90;;;;;;7286480;19;20202;-84
2024/03/24 08:15:13;;;;;;;16.77;3.40;;;9.70;99.90;;;;;;7288144;19;20870;-84
2024/03/24 08:17:39;;;;;;;13.10;2.87;;;9.90;99.90;;;;;;7290173;19;20195;-84
2024/03/24 08:20:06;;;;;;;11.27;2.93;;;10.30;99.90;;;;;;7310298;19;20523;-82
2024/03/24 08:22:32;;;;;;;15.30;3.60;;;10.90;99.90;;;;;;7286067;19;20206;-84
2024/03/24 08:24:58;;;;;;;16.33;3.23;;;10.90;99.90;;;;;;7285345;19;20226;-83
2024/03/24 08:27:24;;;;;;;14.03;3.10;;;10.70;99.90;;;;;;7286468;19;20521;-85
2024/03/24 08:29:50;;;;;;;11.37;3.13;;;10.30;99.90;;;;;;7286733;19;20199;-83
2024/03/24 08:32:19;;;;;;;15.20;4.10;;;10.10;99.90;;;;;;7288412;19;20185;-83
2024/03/24 08:34:45;;;;;;;20.03;4.80;;;9.90;99.90;;;;;;7287754;19;20659;-83
2024/03/24 08:37:11;;;;;;;18.50;4.77;;;9.70;99.90;;;;;;7290198;19;20202;-85
2024/03/24 08:39:40;;;;;;;15.77;4.43;;;9.60;99.90;;;;;;7311470;19;20195;-83
2024/03/24 08:42:06;;;;;;;15.60;4.43;;;9.60;99.90;;;;;;7289580;19;20557;-85
2024/03/24 08:44:42;;;;;;;18.83;5.03;;;9.80;99.90;;;;;;7286263;19;20192;-86
2024/03/24 08:47:09;;;;;;;15.90;4.33;;;10.00;99.90;;;;;;7267106;19;20243;-84
2024/03/24 08:49:35;;;;;;;15.53;4.17;;;10.20;99.90;;;;;;7304081;19;20195;-85
2024/03/24 08:52:01;;;;;;;16.43;3.87;;;10.40;99.90;;;;;;7286905;19;20699;-85
2024/03/24 08:54:27;;;;;;;17.07;4.03;;;10.50;99.90;;;;;;7288086;19;25733;-85
2024/03/24 08:56:53;;;;;;;16.53;3.97;;;11.70;99.90;;;;;;7286699;19;20197;-85
2024/03/24 08:59:20;;;;;;;13.70;3.63;;;13.20;99.90;;;;;;7286407;19;20458;-86
2024/03/24 09:01:47;;;;;;;16.60;3.40;;;15.00;99.90;;;;;;7288291;19;20733;-87
2024/03/24 09:04:12;;;;;;;13.77;3.10;;;15.10;99.90;;;;;;7287631;19;20272;-86
2024/03/24 09:06:38;;;;;;;14.53;3.27;;;15.30;99.90;;;;;;7291996;19;20975;-86
2024/03/24 09:09:04;;;;;;;14.90;3.20;;;15.10;99.90;;;;;;7310240;19;20195;-87
2024/03/24 09:11:30;;;;;;;16.97;3.77;;;14.50;99.90;;;;;;7286673;19;20552;-85
2024/03/24 09:13:56;;;;;;;16.37;4.10;;;13.30;99.90;;;;;;7287568;19;20203;-85
2024/03/24 09:16:23;;;;;;;14.53;3.60;;;12.40;99.90;;;;;;7287134;19;20182;-86
2024/03/24 09:18:49;;;;;;;17.93;4.13;;;12.00;99.90;;;;;;7286329;19;20198;-82
2024/03/24 09:21:14;;;;;;;15.27;4.10;;;12.00;99.90;;;;;;7288316;19;20180;-85
2024/03/24 09:23:40;;;;;;;16.87;4.13;;;11.90;99.90;;;;;;7305543;19;20576;-82
2024/03/24 09:26:06;;;;;;;14.40;4.27;;;12.20;99.90;;;;;;7303373;19;20193;-84
2024/03/24 09:28:32;;;;;;;15.53;4.40;;;12.40;99.90;;;;;;7286199;19;20634;-85
2024/03/24 09:30:59;;;;;;;16.10;4.67;;;12.60;99.90;;;;;;7288219;19;20289;-86
2024/03/24 09:33:25;;;;;;;14.47;4.27;;;12.20;99.90;;;;;;7287761;19;20193;-86
2024/03/24 09:35:51;;;;;;;16.33;4.07;;;12.00;99.90;;;;;;7285960;19;20223;-86
2024/03/24 09:38:17;;;;;;;15.90;3.90;;;11.60;99.90;;;;;;7290929;19;20211;-86
2024/03/24 09:40:43;;;;;;;15.07;3.90;;;11.50;99.90;;;;;;7288374;19;20177;-85
2024/03/24 09:43:10;;;;;;;14.17;3.97;;;11.30;99.90;;;;;;7314916;19;20193;-86
2024/03/24 09:45:36;;;;;;;12.33;4.40;;;11.20;99.90;;;;;;7290689;19;20201;-86
2024/03/24 09:48:09;;;;;;;13.77;3.70;;;11.30;99.90;;;;;;7288654;19;20207;-86
2024/03/24 09:50:37;;;;;;;16.90;4.23;;;11.60;99.90;;;;;;7289575;19;20261;-86
2024/03/24 09:53:03;;;;;;;11.07;3.80;;;12.20;99.90;;;;;;7285562;19;20204;-86
2024/03/24 09:55:29;;;;;;;14.97;4.10;;;12.40;99.90;;;;;;7285083;19;20182;-86
2024/03/24 09:57:57;;;;;;;11.77;3.70;;;12.20;99.90;;;;;;7287448;19;20196;-86
2024/03/24 10:00:23;;;;;;;15.03;3.83;;;12.10;99.90;;;;;;7286217;19;20182;-86
2024/03/24 10:02:50;;;;;;;11.73;4.13;;;12.10;99.90;;;;;;7285917;19;20236;-86
2024/03/24 10:05:16;;;;;;;15.30;4.07;;;12.20;99.90;;;;;;7286001;19;20270;-86
2024/03/24 10:07:45;;;;;;;14.13;4.00;;;12.10;99.90;;;;;;7287194;19;20197;-84
2024/03/24 10:10:12;;;;;;;13.80;4.00;;;12.10;99.90;;;;;;7297254;19;20189;-86
2024/03/24 10:12:38;;;;;;;15.47;3.87;;;11.80;99.90;;;;;;7307119;19;20185;-87
2024/03/24 10:15:17;;;;;;;12.73;3.30;;;11.70;99.90;;;;;;7286386;19;20720;-86
2024/03/24 10:17:43;;;;;;;11.87;3.87;;;11.40;99.90;;;;;;7264336;19;20231;-86
2024/03/24 10:20:13;;;;;;;15.43;4.00;;;11.40;99.90;;;;;;7306933;19;20248;-86
2024/03/24 10:22:40;;;;;;;12.77;3.40;;;11.30;99.90;;;;;;7286539;19;20189;-86
2024/03/24 10:25:11;;;;;;;10.57;2.93;;;11.20;99.90;;;;;;7283152;19;20215;-85
2024/03/24 10:27:40;;;;;;;12.70;3.63;;;11.00;99.90;;;;;;7286378;19;20185;-85
2024/03/24 10:30:06;;;;;;;13.63;3.80;;;11.00;99.90;;;;;;7284944;19;20193;-85
2024/03/24 10:32:32;;;;;;;10.70;3.40;;;11.20;99.90;;;;;;7284325;19;20203;-86
2024/03/24 10:35:01;;;;;;;16.30;3.67;;;12.50;99.90;;;;;;7286408;19;20259;-86
2024/03/24 10:37:27;;;;;;;9.37;3.10;;;13.70;99.90;;;;;;7286961;19;20228;-86
2024/03/24 10:39:54;;;;;;;12.73;3.13;;;14.30;99.90;;;;;;7283980;19;20196;-86
2024/03/24 10:42:21;;;;;;;11.73;3.30;;;15.40;99.90;;;;;;7284261;19;20195;-86
2024/03/24 10:44:47;;;;;;;9.43;3.10;;;16.10;99.90;;;;;;7285643;19;20200;-86
2024/03/24 10:47:13;;;;;;;14.30;3.13;;;16.90;99.90;;;;;;7286313;19;20187;-85
2024/03/24 10:49:41;;;;;;;11.43;2.90;;;17.20;99.90;;;;;;7306709;19;20214;-86
2024/03/24 10:52:09;;;;;;;13.13;2.93;;;17.90;99.90;;;;;;7285106;19;20206;-86
2024/03/24 10:54:36;;;;;;;12.20;2.90;;;17.10;99.90;;;;;;7283561;19;20199;-85
2024/03/24 10:57:05;;;;;;;14.03;2.90;;;15.90;99.90;;;;;;7283816;19;20272;-86
2024/03/24 10:59:32;;;;;;;11.67;3.13;;;14.30;99.90;;;;;;7281854;19;20322;-86
2024/03/24 11:02:00;;;;;;;12.90;3.87;;;12.80;99.90;;;;;;7284868;19;20196;-84
2024/03/24 11:04:28;;;;;;;12.73;3.80;;;12.10;99.90;;;;;;7285025;19;20545;-84
2024/03/24 11:06:54;;;;;;;14.17;4.40;;;11.90;99.90;;;;;;7282590;19;20190;-85
2024/03/24 11:09:20;;;;;;;12.93;4.03;;;12.00;99.90;;;;;;7282038;19;20197;-84
2024/03/24 11:11:46;;;;;;;11.77;4.90;;;11.90;99.90;;;;;;7283291;19;20252;-84
2024/03/24 11:14:12;;;;;;;15.63;7.13;;;11.80;99.90;;;;;;7287757;19;20678;-84
2024/03/24 11:16:38;;;;;;;11.07;4.00;;;12.20;99.90;;;;;;7302774;19;20185;-84
2024/03/24 11:19:06;;;;;;;11.47;3.37;;;12.70;99.90;;;;;;7283041;19;20742;-84
2024/03/24 11:21:40;;;;;;;12.93;4.13;;;12.90;99.90;;;;;;7284096;19;20249;-85
2024/03/24 11:24:26;;;;;;;11.03;2.27;;;13.20;99.90;;;;;;7285223;19;20213;-84
2024/03/24 11:26:52;;;;;;;12.37;3.37;;;13.70;99.90;;;;;;7184268;19;2004592;-84
2024/03/24 11:29:58;;;;;;;9.63;2.30;;;14.50;99.90;;;;;;7287341;19;20192;-84
2024/03/24 11:33:00;;;;;;;8.60;2.30;;;14.70;99.90;;;;;;7187444;19;2004833;-84
2024/03/24 11:35:27;;;;;;;11.60;2.30;;;14.50;99.90;;;;;;7179515;19;2004762;-84
2024/03/24 11:37:54;;;;;;;12.60;2.77;;;14.00;99.90;;;;;;7283684;19;20202;-86
2024/03/24 11:40:29;;;;;;;10.40;3.00;;;14.40;99.90;;;;;;7282873;19;20197;-85
2024/03/24 11:42:58;;;;;;;9.90;3.07;;;14.70;99.90;;;;;;7284504;19;20204;-85
2024/03/24 11:45:28;;;;;;;12.97;2.80;;;15.40;99.90;;;;;;7282088;19;20197;-85
2024/03/24 11:48:19;;;;;;;12.43;2.93;;;14.90;99.90;;;;;;7283682;19;20193;-85
2024/03/24 11:50:47;;;;;;;11.57;2.63;;;14.60;99.90;;;;;;7179445;19;2006309;-85
2024/03/24 11:53:14;;;;;;;6.67;1.93;;;14.20;99.90;;;;;;7284187;19;20184;-83
2024/03/24 11:55:40;;;;;;;16.73;3.57;;;13.90;99.90;;;;;;7304734;19;20651;-85
2024/03/24 11:58:06;;;;;;;10.77;2.43;;;13.50;99.90;;;;;;7284762;19;20198;-83
2024/03/24 12:00:32;;;;;;;10.37;2.80;;;13.30;99.90;;;;;;7287151;19;20196;-84
2024/03/24 12:02:58;;;;;;;15.63;5.83;;;12.90;99.90;;;;;;7284408;19;20194;-84
2024/03/24 12:05:25;;;;;;;12.60;2.70;;;13.20;99.90;;;;;;7286694;19;20225;-84
2024/03/24 12:07:51;;;;;;;12.93;2.80;;;13.60;99.90;;;;;;7285114;19;20194;-85
2024/03/24 12:10:17;;;;;;;8.40;2.80;;;13.90;99.90;;;;;;7282483;19;20224;-84
2024/03/24 12:12:42;;;;;;;10.30;2.30;;;14.60;99.90;;;;;;7277748;19;20190;-85
2024/03/24 12:15:11;;;;;;;15.80;3.00;;;14.70;99.90;;;;;;7303200;19;20489;-83
2024/03/24 12:17:37;;;;;;;10.77;3.40;;;14.70;99.90;;;;;;7284378;19;20200;-85
2024/03/24 12:20:04;;;;;;;11.57;2.60;;;14.80;99.90;;;;;;7282230;19;20209;-83
2024/03/24 12:22:32;;;;;;;12.13;2.03;;;14.60;99.90;;;;;;7280388;19;20223;-83
2024/03/24 12:25:00;;;;;;;12.53;2.57;;;14.30;99.90;;;;;;7278927;19;20197;-82
2024/03/24 12:27:26;;;;;;;11.87;2.73;;;14.10;99.90;;;;;;7281987;19;20215;-81
2024/03/24 12:29:52;;;;;;;10.50;1.90;;;14.20;99.90;;;;;;7279711;19;20199;-83
2024/03/24 12:32:18;;;;;;;11.57;2.60;;;14.70;99.90;;;;;;7280951;19;20185;-83
2024/03/24 12:34:46;;;;;;;12.10;2.40;;;14.80;99.90;;;;;;7282115;19;20185;-83
2024/03/24 12:37:12;;;;;;;9.50;2.20;;;14.70;99.90;;;;;;7287251;19;20281;-82
2024/03/24 12:39:38;;;;;;;8.60;1.93;;;14.40;99.90;;;;;;7301190;19;20191;-81
2024/03/24 12:42:14;;;;;;;9.47;1.80;;;14.20;99.90;;;;;;7281279;19;20591;-82